Wuhu, China
Current Conditions -  °F | °C
As of 9:00 AM on Friday 19 Dec 2014 (Local Time) from ZSNJ Reporting Station
Haze Haze  
Wind Chill: 38°   Ceiling: Unl
Heat Index: 41°   Visibility: 2.5mi
Dew Point: 34°   Wind: 4mph
Humidity: 76%   Direction: NA
Pressure: 30.36"   Gusts: NA
Location:  31.35°N, 118.37°E
Report Text: ZSNJ 190100Z VRB02MPS 4000 HZ NSC 05/01 Q1028 NOSIG
Loading
Personal Weather Stations






























Interactive Weather Map New forecast layout! Learn more

10-Day Weather Forecast

Advertisements
Track Severe Weather on mobile